sensor_id;sensor_type;location;lat;lon;timestamp;temperature;humidity
23729;DHT22;12045;60.214;24.724;2022-11-15T03:45:45;7.00;99.90
23729;DHT22;12045;60.214;24.724;2022-11-15T03:48:26;7.00;99.90
23729;DHT22;12045;60.214;24.724;2022-11-15T04:43:49;6.20;99.90
23729;DHT22;12045;60.214;24.724;2022-11-15T04:46:17;6.30;99.90
23729;DHT22;12045;60.214;24.724;2022-11-15T04:48:45;6.10;99.90
23729;DHT22;12045;60.214;24.724;2022-11-15T04:51:12;6.10;99.90
23729;DHT22;12045;60.214;24.724;2022-11-15T04:56:16;6.10;99.90
23729;DHT22;12045;60.214;24.724;2022-11-15T04:59:01;6.00;99.90
23729;DHT22;12045;60.214;24.724;2022-11-15T05:01:44;6.00;99.90
23729;DHT22;12045;60.214;24.724;2022-11-15T05:04:26;5.80;99.90
23729;DHT22;12045;60.214;24.724;2022-11-15T05:07:09;5.80;99.90
23729;DHT22;12045;60.214;24.724;2022-11-15T05:09:39;5.70;99.90
23729;DHT22;12045;60.214;24.724;2022-11-15T05:12:20;5.70;99.90
23729;DHT22;12045;60.214;24.724;2022-11-15T05:14:51;5.60;99.90
23729;DHT22;12045;60.214;24.724;2022-11-15T05:17:23;5.70;99.90
23729;DHT22;12045;60.214;24.724;2022-11-15T05:19:51;5.60;99.90
23729;DHT22;12045;60.214;24.724;2022-11-15T05:22:34;5.90;99.90
23729;DHT22;12045;60.214;24.724;2022-11-15T09:17:20;4.70;99.90
23729;DHT22;12045;60.214;24.724;2022-11-15T09:20:13;4.80;99.90
23729;DHT22;12045;60.214;24.724;2022-11-15T09:23:02;4.70;99.90
23729;DHT22;12045;60.214;24.724;2022-11-15T09:25:35;4.70;99.90
23729;DHT22;12045;60.214;24.724;2022-11-15T09:28:18;4.60;99.90
23729;DHT22;12045;60.214;24.724;2022-11-15T09:30:46;4.60;99.90
23729;DHT22;12045;60.214;24.724;2022-11-15T09:33:24;4.70;99.90
23729;DHT22;12045;60.214;24.724;2022-11-15T09:36:07;5.20;99.90
23729;DHT22;12045;60.214;24.724;2022-11-15T09:38:51;4.60;99.90
23729;DHT22;12045;60.214;24.724;2022-11-15T09:45:24;4.70;99.90
23729;DHT22;12045;60.214;24.724;2022-11-15T09:49:19;5.00;99.90
23729;DHT22;12045;60.214;24.724;2022-11-15T09:51:54;4.60;99.90
23729;DHT22;12045;60.214;24.724;2022-11-15T09:54:48;4.60;99.90
23729;DHT22;12045;60.214;24.724;2022-11-15T10:00:44;5.20;99.90
23729;DHT22;12045;60.214;24.724;2022-11-15T10:03:34;4.50;99.90
23729;DHT22;12045;60.214;24.724;2022-11-15T10:06:23;4.80;99.90
23729;DHT22;12045;60.214;24.724;2022-11-15T10:09:30;4.80;99.90
23729;DHT22;12045;60.214;24.724;2022-11-15T10:12:43;4.40;99.90
23729;DHT22;12045;60.214;24.724;2022-11-15T10:15:41;4.50;99.90
23729;DHT22;12045;60.214;24.724;2022-11-15T10:23:06;3.80;99.90
23729;DHT22;12045;60.214;24.724;2022-11-15T10:26:30;4.60;99.90
23729;DHT22;12045;60.214;24.724;2022-11-15T10:29:46;4.40;99.90
23729;DHT22;12045;60.214;24.724;2022-11-15T10:37:30;5.20;99.90
23729;DHT22;12045;60.214;24.724;2022-11-15T10:41:06;4.50;99.90
23729;DHT22;12045;60.214;24.724;2022-11-15T10:46:43;4.40;99.90
23729;DHT22;12045;60.214;24.724;2022-11-15T10:49:18;4.50;99.90
23729;DHT22;12045;60.214;24.724;2022-11-15T10:52:28;4.50;99.90
23729;DHT22;12045;60.214;24.724;2022-11-15T10:57:54;4.60;99.90
23729;DHT22;12045;60.214;24.724;2022-11-15T11:00:44;4.60;99.90
23729;DHT22;12045;60.214;24.724;2022-11-15T11:04:04;4.70;99.90
23729;DHT22;12045;60.214;24.724;2022-11-15T11:07:22;4.90;99.90
23729;DHT22;12045;60.214;24.724;2022-11-15T11:10:21;4.70;99.90
23729;DHT22;12045;60.214;24.724;2022-11-15T11:13:22;4.70;99.90
23729;DHT22;12045;60.214;24.724;2022-11-15T11:16:19;4.60;99.90
23729;DHT22;12045;60.214;24.724;2022-11-15T11:19:44;4.60;99.90
23729;DHT22;12045;60.214;24.724;2022-11-15T11:25:40;3.80;99.90
23729;DHT22;12045;60.214;24.724;2022-11-15T11:37:52;4.10;99.90
23729;DHT22;12045;60.214;24.724;2022-11-15T11:44:18;4.10;99.90
23729;DHT22;12045;60.214;24.724;2022-11-15T11:49:50;4.30;99.90
23729;DHT22;12045;60.214;24.724;2022-11-15T11:52:33;4.40;99.90
23729;DHT22;12045;60.214;24.724;2022-11-15T11:55:24;4.50;99.90
23729;DHT22;12045;60.214;24.724;2022-11-15T11:58:35;4.20;99.90
23729;DHT22;12045;60.214;24.724;2022-11-15T12:01:16;4.90;99.90
23729;DHT22;12045;60.214;24.724;2022-11-15T12:06:59;4.20;99.90
23729;DHT22;12045;60.214;24.724;2022-11-15T12:09:58;4.30;99.90
23729;DHT22;12045;60.214;24.724;2022-11-15T12:12:51;5.00;99.90
23729;DHT22;12045;60.214;24.724;2022-11-15T12:15:48;4.30;99.90
23729;DHT22;12045;60.214;24.724;2022-11-15T12:18:23;4.40;99.90
23729;DHT22;12045;60.214;24.724;2022-11-15T12:21:07;4.40;99.90
23729;DHT22;12045;60.214;24.724;2022-11-15T12:23:47;4.60;99.90
23729;DHT22;12045;60.214;24.724;2022-11-15T12:26:47;4.30;99.90
23729;DHT22;12045;60.214;24.724;2022-11-15T12:29:31;4.30;99.90
23729;DHT22;12045;60.214;24.724;2022-11-15T12:32:01;4.20;99.90
23729;DHT22;12045;60.214;24.724;2022-11-15T12:34:41;4.30;99.90
23729;DHT22;12045;60.214;24.724;2022-11-15T12:45:51;4.40;99.90
23729;DHT22;12045;60.214;24.724;2022-11-15T12:51:07;4.30;99.90
23729;DHT22;12045;60.214;24.724;2022-11-15T12:53:51;4.30;99.90
23729;DHT22;12045;60.214;24.724;2022-11-15T12:56:37;4.30;99.90
23729;DHT22;12045;60.214;24.724;2022-11-15T12:59:08;5.00;99.90
23729;DHT22;12045;60.214;24.724;2022-11-15T13:01:52;4.40;99.90
23729;DHT22;12045;60.214;24.724;2022-11-15T13:04:36;4.70;99.90
23729;DHT22;12045;60.214;24.724;2022-11-15T13:07:05;4.30;99.90
23729;DHT22;12045;60.214;24.724;2022-11-15T13:22:28;5.10;99.90
23729;DHT22;12045;60.214;24.724;2022-11-15T13:30:50;4.10;99.90
23729;DHT22;12045;60.214;24.724;2022-11-15T13:33:33;4.80;99.90
23729;DHT22;12045;60.214;24.724;2022-11-15T13:36:15;4.20;99.90
23729;DHT22;12045;60.214;24.724;2022-11-15T13:41:31;4.30;99.90
23729;DHT22;12045;60.214;24.724;2022-11-15T13:44:02;5.10;99.90
23729;DHT22;12045;60.214;24.724;2022-11-15T13:46:33;4.30;99.90
23729;DHT22;12045;60.214;24.724;2022-11-15T13:49:04;4.10;99.90
23729;DHT22;12045;60.214;24.724;2022-11-15T13:51:48;4.30;99.90
23729;DHT22;12045;60.214;24.724;2022-11-15T13:54:23;4.10;99.90
23729;DHT22;12045;60.214;24.724;2022-11-15T13:57:03;4.60;99.90
23729;DHT22;12045;60.214;24.724;2022-11-15T13:59:33;4.40;99.90
23729;DHT22;12045;60.214;24.724;2022-11-15T14:02:14;4.60;99.90
23729;DHT22;12045;60.214;24.724;2022-11-15T14:04:50;4.20;99.90
23729;DHT22;12045;60.214;24.724;2022-11-15T14:07:20;4.60;99.90
23729;DHT22;12045;60.214;24.724;2022-11-15T14:09:48;4.10;99.90
23729;DHT22;12045;60.214;24.724;2022-11-15T14:12:31;4.50;99.90
23729;DHT22;12045;60.214;24.724;2022-11-15T14:15:02;5.30;99.90
23729;DHT22;12045;60.214;24.724;2022-11-15T14:17:45;4.90;99.90
23729;DHT22;12045;60.214;24.724;2022-11-15T14:20:39;4.40;99.90
23729;DHT22;12045;60.214;24.724;2022-11-15T14:23:27;4.40;99.90
23729;DHT22;12045;60.214;24.724;2022-11-15T14:25:57;4.20;99.90
23729;DHT22;12045;60.214;24.724;2022-11-15T14:30:54;4.10;99.90
23729;DHT22;12045;60.214;24.724;2022-11-15T14:33:29;4.40;99.90
23729;DHT22;12045;60.214;24.724;2022-11-15T14:36:17;4.10;99.90
23729;DHT22;12045;60.214;24.724;2022-11-15T14:38:46;4.10;99.90
23729;DHT22;12045;60.214;24.724;2022-11-15T14:41:27;4.30;99.90
23729;DHT22;12045;60.214;24.724;2022-11-15T14:43:55;5.00;99.90
23729;DHT22;12045;60.214;24.724;2022-11-15T14:46:24;4.20;99.90
23729;DHT22;12045;60.214;24.724;2022-11-15T14:48:54;4.30;99.90
23729;DHT22;12045;60.214;24.724;2022-11-15T14:51:21;5.90;99.90
23729;DHT22;12045;60.214;24.724;2022-11-15T14:53:49;3.80;99.90
23729;DHT22;12045;60.214;24.724;2022-11-15T14:56:30;3.80;99.90
23729;DHT22;12045;60.214;24.724;2022-11-15T14:58:58;3.80;99.90
23729;DHT22;12045;60.214;24.724;2022-11-15T15:01:27;3.80;99.90
23729;DHT22;12045;60.214;24.724;2022-11-15T15:04:00;3.80;99.90
23729;DHT22;12045;60.214;24.724;2022-11-15T15:06:27;3.50;99.90
23729;DHT22;12045;60.214;24.724;2022-11-15T15:08:56;3.80;99.90
23729;DHT22;12045;60.214;24.724;2022-11-15T15:11:30;3.80;99.90
23729;DHT22;12045;60.214;24.724;2022-11-15T15:14:08;4.30;99.90
23729;DHT22;12045;60.214;24.724;2022-11-15T15:16:36;4.00;99.90
23729;DHT22;12045;60.214;24.724;2022-11-15T15:19:04;4.80;99.90
23729;DHT22;12045;60.214;24.724;2022-11-15T15:21:31;4.00;99.90
23729;DHT22;12045;60.214;24.724;2022-11-15T15:24:03;4.30;99.90
23729;DHT22;12045;60.214;24.724;2022-11-15T15:26:31;4.20;99.90
23729;DHT22;12045;60.214;24.724;2022-11-15T15:29:03;3.80;99.90
23729;DHT22;12045;60.214;24.724;2022-11-15T15:31:31;4.70;99.90
23729;DHT22;12045;60.214;24.724;2022-11-15T15:34:00;3.60;99.90
23729;DHT22;12045;60.214;24.724;2022-11-15T15:36:28;4.50;99.90
23729;DHT22;12045;60.214;24.724;2022-11-15T15:38:55;4.20;99.90
23729;DHT22;12045;60.214;24.724;2022-11-15T15:41:24;3.80;99.90
23729;DHT22;12045;60.214;24.724;2022-11-15T15:43:52;3.70;99.90
23729;DHT22;12045;60.214;24.724;2022-11-15T15:46:20;4.00;99.90
23729;DHT22;12045;60.214;24.724;2022-11-15T15:48:47;3.60;99.90
23729;DHT22;12045;60.214;24.724;2022-11-15T15:51:15;3.60;99.90
23729;DHT22;12045;60.214;24.724;2022-11-15T15:53:51;3.50;99.90
23729;DHT22;12045;60.214;24.724;2022-11-15T15:56:27;3.60;99.90
23729;DHT22;12045;60.214;24.724;2022-11-15T15:58:55;3.70;99.90
23729;DHT22;12045;60.214;24.724;2022-11-15T16:01:22;4.20;99.90
23729;DHT22;12045;60.214;24.724;2022-11-15T16:03:50;4.80;99.90
23729;DHT22;12045;60.214;24.724;2022-11-15T16:06:40;4.50;99.90
23729;DHT22;12045;60.214;24.724;2022-11-15T16:09:16;3.50;99.90
23729;DHT22;12045;60.214;24.724;2022-11-15T16:11:46;3.50;99.90
23729;DHT22;12045;60.214;24.724;2022-11-15T16:14:13;3.40;99.90
23729;DHT22;12045;60.214;24.724;2022-11-15T16:16:41;4.80;99.90
23729;DHT22;12045;60.214;24.724;2022-11-15T16:19:09;4.30;99.90
23729;DHT22;12045;60.214;24.724;2022-11-15T16:21:37;4.00;99.90
23729;DHT22;12045;60.214;24.724;2022-11-15T16:24:05;4.00;99.90
23729;DHT22;12045;60.214;24.724;2022-11-15T16:26:34;3.30;99.90
23729;DHT22;12045;60.214;24.724;2022-11-15T16:29:03;4.80;99.90
23729;DHT22;12045;60.214;24.724;2022-11-15T16:31:30;4.00;99.90
23729;DHT22;12045;60.214;24.724;2022-11-15T16:33:58;3.90;99.90
23729;DHT22;12045;60.214;24.724;2022-11-15T16:36:26;3.70;99.90
23729;DHT22;12045;60.214;24.724;2022-11-15T16:38:58;4.70;99.90
23729;DHT22;12045;60.214;24.724;2022-11-15T16:41:26;3.90;99.90
23729;DHT22;12045;60.214;24.724;2022-11-15T16:43:53;4.90;99.90
23729;DHT22;12045;60.214;24.724;2022-11-15T16:46:25;4.90;99.90
23729;DHT22;12045;60.214;24.724;2022-11-15T16:48:53;3.20;99.90
23729;DHT22;12045;60.214;24.724;2022-11-15T16:51:21;3.20;99.90
23729;DHT22;12045;60.214;24.724;2022-11-15T16:53:49;3.50;99.90
23729;DHT22;12045;60.214;24.724;2022-11-15T16:56:28;4.30;99.90
23729;DHT22;12045;60.214;24.724;2022-11-15T16:58:57;3.30;99.90
23729;DHT22;12045;60.214;24.724;2022-11-15T17:01:26;3.30;99.90
23729;DHT22;12045;60.214;24.724;2022-11-15T17:03:55;5.40;99.90
23729;DHT22;12045;60.214;24.724;2022-11-15T17:06:25;4.40;99.90
23729;DHT22;12045;60.214;24.724;2022-11-15T17:08:53;4.40;99.90
23729;DHT22;12045;60.214;24.724;2022-11-15T17:11:21;4.30;99.90
23729;DHT22;12045;60.214;24.724;2022-11-15T17:13:49;4.50;99.90
23729;DHT22;12045;60.214;24.724;2022-11-15T17:16:19;4.30;99.90
23729;DHT22;12045;60.214;24.724;2022-11-15T17:18:50;3.30;99.90
23729;DHT22;12045;60.214;24.724;2022-11-15T17:21:20;5.20;99.90
23729;DHT22;12045;60.214;24.724;2022-11-15T17:23:48;3.70;99.90
23729;DHT22;12045;60.214;24.724;2022-11-15T17:26:15;3.20;99.90
23729;DHT22;12045;60.214;24.724;2022-11-15T17:28:57;3.60;99.90
23729;DHT22;12045;60.214;24.724;2022-11-15T17:31:27;4.30;99.90
23729;DHT22;12045;60.214;24.724;2022-11-15T17:33:57;4.40;99.90
23729;DHT22;12045;60.214;24.724;2022-11-15T17:36:24;4.10;99.90
23729;DHT22;12045;60.214;24.724;2022-11-15T17:38:51;2.60;99.90
23729;DHT22;12045;60.214;24.724;2022-11-15T17:41:26;4.90;99.90
23729;DHT22;12045;60.214;24.724;2022-11-15T17:43:57;3.40;99.90
23729;DHT22;12045;60.214;24.724;2022-11-15T17:46:27;3.30;99.90
23729;DHT22;12045;60.214;24.724;2022-11-15T17:48:56;3.10;99.90
23729;DHT22;12045;60.214;24.724;2022-11-15T17:51:24;3.20;99.90
23729;DHT22;12045;60.214;24.724;2022-11-15T17:53:51;2.40;99.90
23729;DHT22;12045;60.214;24.724;2022-11-15T17:56:21;4.00;99.90
23729;DHT22;12045;60.214;24.724;2022-11-15T17:58:50;3.30;99.90
23729;DHT22;12045;60.214;24.724;2022-11-15T18:01:24;4.40;99.90
23729;DHT22;12045;60.214;24.724;2022-11-15T18:03:53;3.10;99.90
23729;DHT22;12045;60.214;24.724;2022-11-15T18:06:22;3.00;99.90
23729;DHT22;12045;60.214;24.724;2022-11-15T18:08:51;4.00;99.90
23729;DHT22;12045;60.214;24.724;2022-11-15T18:11:22;3.00;99.90
23729;DHT22;12045;60.214;24.724;2022-11-15T18:13:52;4.30;99.90
23729;DHT22;12045;60.214;24.724;2022-11-15T18:16:22;4.40;99.90
23729;DHT22;12045;60.214;24.724;2022-11-15T18:18:53;2.90;99.90
23729;DHT22;12045;60.214;24.724;2022-11-15T18:21:23;5.00;99.90
23729;DHT22;12045;60.214;24.724;2022-11-15T18:23:56;2.50;99.90
23729;DHT22;12045;60.214;24.724;2022-11-15T18:26:26;4.40;99.90
23729;DHT22;12045;60.214;24.724;2022-11-15T18:28:56;4.30;99.90
23729;DHT22;12045;60.214;24.724;2022-11-15T18:31:26;4.40;99.90
23729;DHT22;12045;60.214;24.724;2022-11-15T18:33:55;3.10;99.90
23729;DHT22;12045;60.214;24.724;2022-11-15T18:36:26;4.40;99.90
23729;DHT22;12045;60.214;24.724;2022-11-15T18:38:59;4.40;99.90
23729;DHT22;12045;60.214;24.724;2022-11-15T18:41:29;4.00;99.90
23729;DHT22;12045;60.214;24.724;2022-11-15T18:43:58;3.50;99.90
23729;DHT22;12045;60.214;24.724;2022-11-15T18:46:29;3.80;99.90
23729;DHT22;12045;60.214;24.724;2022-11-15T18:48:59;3.90;99.90
23729;DHT22;12045;60.214;24.724;2022-11-15T18:51:29;3.90;99.90
23729;DHT22;12045;60.214;24.724;2022-11-15T18:53:59;3.80;99.90
23729;DHT22;12045;60.214;24.724;2022-11-15T18:56:28;3.90;99.90
23729;DHT22;12045;60.214;24.724;2022-11-15T18:58:59;4.50;99.90
23729;DHT22;12045;60.214;24.724;2022-11-15T19:01:29;3.00;99.90
23729;DHT22;12045;60.214;24.724;2022-11-15T19:04:05;4.50;99.90
23729;DHT22;12045;60.214;24.724;2022-11-15T19:06:40;3.00;99.90
23729;DHT22;12045;60.214;24.724;2022-11-15T19:09:09;3.10;99.90
23729;DHT22;12045;60.214;24.724;2022-11-15T19:11:37;3.00;99.90
23729;DHT22;12045;60.214;24.724;2022-11-15T19:14:14;3.60;99.90
23729;DHT22;12045;60.214;24.724;2022-11-15T19:16:44;4.10;99.90
23729;DHT22;12045;60.214;24.724;2022-11-15T19:19:14;4.40;99.90
23729;DHT22;12045;60.214;24.724;2022-11-15T19:21:42;4.40;99.90
23729;DHT22;12045;60.214;24.724;2022-11-15T19:24:10;3.10;99.90
23729;DHT22;12045;60.214;24.724;2022-11-15T19:26:38;3.90;99.90
23729;DHT22;12045;60.214;24.724;2022-11-15T19:29:07;3.50;99.90
23729;DHT22;12045;60.214;24.724;2022-11-15T19:31:36;3.10;99.90
23729;DHT22;12045;60.214;24.724;2022-11-15T19:34:05;3.50;99.90
23729;DHT22;12045;60.214;24.724;2022-11-15T19:36:38;2.70;99.90
23729;DHT22;12045;60.214;24.724;2022-11-15T19:39:08;2.70;99.90
23729;DHT22;12045;60.214;24.724;2022-11-15T19:41:40;4.30;99.90
23729;DHT22;12045;60.214;24.724;2022-11-15T19:44:10;4.20;99.90
23729;DHT22;12045;60.214;24.724;2022-11-15T19:46:38;2.40;99.90
23729;DHT22;12045;60.214;24.724;2022-11-15T19:49:06;3.30;99.90
23729;DHT22;12045;60.214;24.724;2022-11-15T19:51:38;2.40;99.90
23729;DHT22;12045;60.214;24.724;2022-11-15T19:54:07;3.80;99.90
23729;DHT22;12045;60.214;24.724;2022-11-15T19:56:37;4.10;99.90
23729;DHT22;12045;60.214;24.724;2022-11-15T19:59:06;2.60;99.90
23729;DHT22;12045;60.214;24.724;2022-11-15T20:01:35;2.20;99.90
23729;DHT22;12045;60.214;24.724;2022-11-15T20:04:05;4.00;99.90
23729;DHT22;12045;60.214;24.724;2022-11-15T20:06:37;3.50;99.90
23729;DHT22;12045;60.214;24.724;2022-11-15T20:09:05;4.50;99.90
23729;DHT22;12045;60.214;24.724;2022-11-15T20:11:33;4.20;99.90
23729;DHT22;12045;60.214;24.724;2022-11-15T20:14:04;2.40;99.90
23729;DHT22;12045;60.214;24.724;2022-11-15T20:16:34;4.30;99.90
23729;DHT22;12045;60.214;24.724;2022-11-15T20:19:02;3.70;99.90
23729;DHT22;12045;60.214;24.724;2022-11-15T20:21:29;1.90;99.90
23729;DHT22;12045;60.214;24.724;2022-11-15T20:23:57;4.40;99.90
23729;DHT22;12045;60.214;24.724;2022-11-15T20:26:24;2.00;99.90
23729;DHT22;12045;60.214;24.724;2022-11-15T20:28:52;4.10;99.90
23729;DHT22;12045;60.214;24.724;2022-11-15T20:31:21;2.80;99.90
23729;DHT22;12045;60.214;24.724;2022-11-15T20:33:50;2.00;99.90
23729;DHT22;12045;60.214;24.724;2022-11-15T20:36:18;4.00;99.90
23729;DHT22;12045;60.214;24.724;2022-11-15T20:38:47;3.70;99.90
23729;DHT22;12045;60.214;24.724;2022-11-15T20:41:14;4.20;99.90
23729;DHT22;12045;60.214;24.724;2022-11-15T20:43:42;3.10;99.90
23729;DHT22;12045;60.214;24.724;2022-11-15T20:46:12;3.40;99.90
23729;DHT22;12045;60.214;24.724;2022-11-15T20:48:40;2.20;99.90
23729;DHT22;12045;60.214;24.724;2022-11-15T20:51:16;4.10;99.90
23729;DHT22;12045;60.214;24.724;2022-11-15T20:53:45;2.30;99.90
23729;DHT22;12045;60.214;24.724;2022-11-15T20:56:17;4.10;99.90
23729;DHT22;12045;60.214;24.724;2022-11-15T20:58:45;3.60;99.90
23729;DHT22;12045;60.214;24.724;2022-11-15T21:01:14;3.90;99.90
23729;DHT22;12045;60.214;24.724;2022-11-15T21:03:42;4.70;99.90
23729;DHT22;12045;60.214;24.724;2022-11-15T21:06:10;3.60;99.90
23729;DHT22;12045;60.214;24.724;2022-11-15T21:08:38;4.00;99.90
23729;DHT22;12045;60.214;24.724;2022-11-15T21:11:25;2.50;99.90
23729;DHT22;12045;60.214;24.724;2022-11-15T21:14:11;3.60;99.90
23729;DHT22;12045;60.214;24.724;2022-11-15T21:16:38;2.60;99.90
23729;DHT22;12045;60.214;24.724;2022-11-15T21:19:06;5.10;99.90
23729;DHT22;12045;60.214;24.724;2022-11-15T21:21:37;2.30;99.90
23729;DHT22;12045;60.214;24.724;2022-11-15T21:24:06;3.50;99.90
23729;DHT22;12045;60.214;24.724;2022-11-15T21:26:35;2.20;99.90
23729;DHT22;12045;60.214;24.724;2022-11-15T21:29:03;4.40;99.90
23729;DHT22;12045;60.214;24.724;2022-11-15T21:31:31;3.00;99.90
23729;DHT22;12045;60.214;24.724;2022-11-15T21:34:02;3.40;99.90
23729;DHT22;12045;60.214;24.724;2022-11-15T21:36:29;4.50;99.90
23729;DHT22;12045;60.214;24.724;2022-11-15T21:38:57;1.80;99.90
23729;DHT22;12045;60.214;24.724;2022-11-15T21:41:24;3.60;99.90
23729;DHT22;12045;60.214;24.724;2022-11-15T21:43:56;2.90;99.90
23729;DHT22;12045;60.214;24.724;2022-11-15T21:46:24;3.30;99.90
23729;DHT22;12045;60.214;24.724;2022-11-15T21:48:52;4.00;99.90
23729;DHT22;12045;60.214;24.724;2022-11-15T21:51:19;3.90;99.90
23729;DHT22;12045;60.214;24.724;2022-11-15T21:53:47;3.90;99.90
23729;DHT22;12045;60.214;24.724;2022-11-15T21:56:15;4.00;99.90
23729;DHT22;12045;60.214;24.724;2022-11-15T21:58:42;2.60;99.90
23729;DHT22;12045;60.214;24.724;2022-11-15T22:01:10;3.50;99.90
23729;DHT22;12045;60.214;24.724;2022-11-15T22:03:57;3.10;99.90
23729;DHT22;12045;60.214;24.724;2022-11-15T22:06:24;3.00;99.90
23729;DHT22;12045;60.214;24.724;2022-11-15T22:08:52;3.70;99.90
23729;DHT22;12045;60.214;24.724;2022-11-15T22:11:19;3.50;99.90
23729;DHT22;12045;60.214;24.724;2022-11-15T22:13:47;2.40;99.90
23729;DHT22;12045;60.214;24.724;2022-11-15T22:16:14;3.60;99.90
23729;DHT22;12045;60.214;24.724;2022-11-15T22:18:42;3.40;99.90
23729;DHT22;12045;60.214;24.724;2022-11-15T22:21:12;1.30;99.90
23729;DHT22;12045;60.214;24.724;2022-11-15T22:23:41;1.20;99.90
23729;DHT22;12045;60.214;24.724;2022-11-15T22:26:12;1.50;99.90
23729;DHT22;12045;60.214;24.724;2022-11-15T22:28:40;1.30;99.90
23729;DHT22;12045;60.214;24.724;2022-11-15T22:31:08;1.30;99.90
23729;DHT22;12045;60.214;24.724;2022-11-15T22:33:36;1.40;99.90
23729;DHT22;12045;60.214;24.724;2022-11-15T22:36:04;1.40;99.90
23729;DHT22;12045;60.214;24.724;2022-11-15T22:38:32;1.30;99.90
23729;DHT22;12045;60.214;24.724;2022-11-15T22:41:00;2.20;99.90
23729;DHT22;12045;60.214;24.724;2022-11-15T22:43:28;1.40;99.90
23729;DHT22;12045;60.214;24.724;2022-11-15T22:45:58;1.30;99.90
23729;DHT22;12045;60.214;24.724;2022-11-15T22:48:29;1.10;99.90
23729;DHT22;12045;60.214;24.724;2022-11-15T22:50:57;1.00;99.90
23729;DHT22;12045;60.214;24.724;2022-11-15T22:53:26;1.00;99.90
23729;DHT22;12045;60.214;24.724;2022-11-15T22:55:58;1.00;99.90
23729;DHT22;12045;60.214;24.724;2022-11-15T22:58:28;1.00;99.90
23729;DHT22;12045;60.214;24.724;2022-11-15T23:01:13;1.20;99.90
23729;DHT22;12045;60.214;24.724;2022-11-15T23:03:45;1.10;99.90
23729;DHT22;12045;60.214;24.724;2022-11-15T23:06:13;1.40;99.90
23729;DHT22;12045;60.214;24.724;2022-11-15T23:08:41;1.30;99.90
23729;DHT22;12045;60.214;24.724;2022-11-15T23:11:09;1.20;99.90
23729;DHT22;12045;60.214;24.724;2022-11-15T23:13:56;1.30;99.90
23729;DHT22;12045;60.214;24.724;2022-11-15T23:16:24;1.30;99.90
23729;DHT22;12045;60.214;24.724;2022-11-15T23:19:06;1.20;99.90
23729;DHT22;12045;60.214;24.724;2022-11-15T23:21:36;1.20;99.90
23729;DHT22;12045;60.214;24.724;2022-11-15T23:24:23;1.20;99.90
23729;DHT22;12045;60.214;24.724;2022-11-15T23:26:54;1.20;99.90
23729;DHT22;12045;60.214;24.724;2022-11-15T23:29:23;1.30;99.90
23729;DHT22;12045;60.214;24.724;2022-11-15T23:31:53;1.30;99.90
23729;DHT22;12045;60.214;24.724;2022-11-15T23:34:44;1.40;99.90
23729;DHT22;12045;60.214;24.724;2022-11-15T23:37:13;1.30;99.90
23729;DHT22;12045;60.214;24.724;2022-11-15T23:39:41;1.10;99.90
23729;DHT22;12045;60.214;24.724;2022-11-15T23:42:09;1.20;99.90
23729;DHT22;12045;60.214;24.724;2022-11-15T23:44:46;1.20;99.90
23729;DHT22;12045;60.214;24.724;2022-11-15T23:47:17;1.20;99.90
23729;DHT22;12045;60.214;24.724;2022-11-15T23:49:45;1.20;99.90
23729;DHT22;12045;60.214;24.724;2022-11-15T23:52:15;1.20;99.90
23729;DHT22;12045;60.214;24.724;2022-11-15T23:54:42;1.30;99.90
23729;DHT22;12045;60.214;24.724;2022-11-15T23:57:11;1.20;99.90
23729;DHT22;12045;60.214;24.724;2022-11-15T23:59:40;1.20;99.90
